Time;durP1;ratioP1;P1;durP2;ratioP2;P2;SDS_P1;SDS_P2;PMS_P1;PMS_P2;Temp;Humidity;BMP_temperature;BMP_pressure;BME280_temperature;BME280_humidity;BME280_pressure;Samples;Min_cycle;Max_cycle;Signal;HPM_P1;HPM_P2
2024/02/28 00:01:38;;;;;;;12.35;9.05;;;;;;;2.79;100.00;101951.69;5006103;28;20046;-70
2024/02/28 00:04:03;;;;;;;13.10;9.25;;;;;;;2.76;100.00;101957.31;4975745;28;20081;-70
2024/02/28 00:06:29;;;;;;;13.90;9.65;;;;;;;2.74;100.00;101952.22;5009867;28;20439;-70
2024/02/28 00:08:54;;;;;;;14.98;10.43;;;;;;;2.74;100.00;101957.53;4976735;28;20049;-70
2024/02/28 00:11:21;;;;;;;14.95;11.02;;;;;;;2.70;100.00;101961.53;4992210;28;20030;-69
2024/02/28 00:13:47;;;;;;;14.60;10.32;;;;;;;2.69;100.00;101954.59;4993123;28;20053;-70
2024/02/28 00:16:12;;;;;;;14.38;10.10;;;;;;;2.67;100.00;101946.88;4996232;28;20089;-70
2024/02/28 00:18:38;;;;;;;14.40;10.10;;;;;;;2.69;100.00;101941.38;4983851;28;20035;-71
2024/02/28 00:21:04;;;;;;;14.45;10.10;;;;;;;2.69;100.00;101944.03;4983253;28;20049;-70
2024/02/28 00:23:31;;;;;;;14.20;10.48;;;;;;;2.69;100.00;101944.03;4997428;28;20128;-70
2024/02/28 00:25:56;;;;;;;15.85;10.10;;;;;;;2.69;100.00;101938.75;4976856;28;20116;-71
2024/02/28 00:28:22;;;;;;;15.40;11.65;;;;;;;2.68;100.00;101931.81;4974112;28;20125;-70
2024/02/28 00:30:47;;;;;;;15.63;10.85;;;;;;;2.66;100.00;101931.19;4996353;28;20034;-71
2024/02/28 00:33:13;;;;;;;16.63;12.45;;;;;;;2.64;100.00;101935.84;4983245;28;20038;-71
2024/02/28 00:35:39;;;;;;;16.20;11.57;;;;;;;2.61;100.00;101941.50;5017759;28;20483;-70
2024/02/28 00:38:05;;;;;;;;;;;;;;;2.62;100.00;101941.31;5013627;28;20053;-70
2024/02/28 00:40:30;;;;;;;17.05;12.13;;;;;;;2.59;100.00;101933.78;4975361;28;20372;-71
2024/02/28 00:42:57;;;;;;;17.23;12.65;;;;;;;2.59;100.00;101927.66;5010811;28;20089;-71
2024/02/28 00:45:23;;;;;;;16.25;12.35;;;;;;;2.55;100.00;101921.09;4983394;28;20527;-71
2024/02/28 00:47:49;;;;;;;18.58;12.75;;;;;;;2.49;100.00;101932.41;5000362;28;20034;-70
2024/02/28 00:50:15;;;;;;;18.23;13.07;;;;;;;2.39;100.00;101925.63;4993750;28;20818;-71
2024/02/28 00:52:41;;;;;;;18.90;12.75;;;;;;;2.37;100.00;101932.94;4984101;28;20554;-70
2024/02/28 00:55:08;;;;;;;19.02;11.90;;;;;;;2.36;100.00;101925.97;4981776;28;20046;-71
2024/02/28 00:57:33;;;;;;;18.42;12.90;;;;;;;2.33;100.00;101934.28;4980935;28;20030;-70
2024/02/28 00:59:59;;;;;;;17.35;12.20;;;;;;;2.33;100.00;101934.28;4982380;28;20545;-71
2024/02/28 01:02:25;;;;;;;22.42;13.18;;;;;;;2.32;100.00;101929.19;5013245;28;20022;-71
2024/02/28 01:04:50;;;;;;;17.80;11.85;;;;;;;2.33;100.00;101936.94;4979750;28;20703;-71
2024/02/28 01:07:16;;;;;;;18.15;13.40;;;;;;;2.32;100.00;101932.66;4997641;28;20043;-71
2024/02/28 01:09:42;;;;;;;17.00;11.85;;;;;;;2.31;100.00;101936.31;5010971;28;20721;-70
2024/02/28 01:12:07;;;;;;;19.15;13.55;;;;;;;2.29;100.00;101930.38;5006558;28;20141;-70
2024/02/28 01:14:33;;;;;;;18.73;12.80;;;;;;;2.26;100.00;101914.91;4968759;28;20072;-70
2024/02/28 01:16:59;;;;;;;19.58;13.35;;;;;;;2.23;100.00;101915.25;4980408;28;20160;-72
2024/02/28 01:19:25;;;;;;;16.30;12.50;;;;;;;2.22;100.00;101924.19;4979573;28;20589;-70
2024/02/28 01:21:50;;;;;;;17.92;12.63;;;;;;;2.22;100.00;101931.31;5012456;28;20035;-71
2024/02/28 01:24:16;;;;;;;21.58;13.77;;;;;;;2.22;100.00;101932.13;4975433;28;20042;-70
2024/02/28 01:26:42;;;;;;;17.88;12.38;;;;;;;2.23;100.00;101928.47;4998507;28;20140;-70
2024/02/28 01:29:08;;;;;;;20.00;13.80;;;;;;;2.17;100.00;101923.94;4954214;28;20517;-69
2024/02/28 01:31:33;;;;;;;22.05;13.93;;;;;;;2.16;100.00;101917.81;4988814;28;20045;-70
2024/02/28 01:33:59;;;;;;;22.77;14.40;;;;;;;2.15;100.00;101915.38;5009571;28;20452;-70
2024/02/28 01:36:26;;;;;;;27.38;15.48;;;;;;;2.14;100.00;101914.53;5011188;28;20031;-70
2024/02/28 01:38:52;;;;;;;23.33;13.93;;;;;;;2.16;100.00;101914.34;4982797;28;20042;-72
2024/02/28 01:41:17;;;;;;;25.02;15.50;;;;;;;2.16;100.00;101904.59;4999258;28;20030;-70
2024/02/28 01:43:43;;;;;;;24.58;14.85;;;;;;;2.16;100.00;101909.88;4982018;28;20070;-70
2024/02/28 01:46:26;;;;;;;23.77;14.60;;;;;;;2.17;100.00;101902.81;4979398;28;20042;-70
2024/02/28 01:48:54;;;;;;;24.77;14.95;;;;;;;2.17;100.00;101902.81;4995882;28;20404;-71
2024/02/28 01:51:22;;;;;;;26.13;15.77;;;;;;;2.14;100.00;101905.81;4981840;28;20531;-71
2024/02/28 01:53:49;;;;;;;25.55;15.27;;;;;;;2.14;100.00;101892.59;4966508;28;20053;-71
2024/02/28 01:56:16;;;;;;;25.75;15.65;;;;;;;2.14;100.00;101897.88;4995510;28;20503;-71
2024/02/28 01:58:44;;;;;;;24.38;14.70;;;;;;;2.14;100.00;101903.97;4982141;28;20235;-71
2024/02/28 02:01:11;;;;;;;24.83;15.82;;;;;;;2.15;100.00;101902.16;4979074;28;20523;-70
2024/02/28 02:03:37;;;;;;;29.48;15.80;;;;;;;2.12;100.00;101889.31;4975565;28;20709;-71
2024/02/28 02:06:03;;;;;;;26.58;15.93;;;;;;;2.13;100.00;101898.88;5008076;28;20495;-70
2024/02/28 02:08:30;;;;;;;;;;;;;;;2.11;100.00;101898.25;4992912;28;20066;-70
2024/02/28 02:10:56;;;;;;;24.15;14.55;;;;;;;2.11;100.00;101900.91;4979015;28;19925;-71
2024/02/28 02:13:22;;;;;;;26.15;15.60;;;;;;;2.13;100.00;101896.25;4981103;28;20136;-70
2024/02/28 02:15:47;;;;;;;25.33;14.98;;;;;;;2.14;100.00;101882.00;4980972;28;20042;-70
2024/02/28 02:18:13;;;;;;;28.10;16.23;;;;;;;2.14;100.00;101889.94;4977565;28;20040;-70
2024/02/28 02:20:43;;;;;;;26.90;15.88;;;;;;;2.15;100.00;101910.06;4988190;28;20038;-70
2024/02/28 02:23:10;;;;;;;26.30;15.05;;;;;;;2.16;100.00;101914.34;4998263;28;20030;-71
2024/02/28 02:25:44;;;;;;;25.30;15.35;;;;;;;2.11;100.00;101914.13;4939007;28;20023;-71
2024/02/28 02:28:10;;;;;;;28.40;16.40;;;;;;;2.14;100.00;101914.53;5005765;28;20030;-70
2024/02/28 02:30:36;;;;;;;26.08;15.80;;;;;;;2.14;100.00;101916.38;4975388;28;20637;-71
2024/02/28 02:33:02;;;;;;;26.70;15.52;;;;;;;2.14;100.00;101913.72;4965774;28;20038;-71
2024/02/28 02:35:27;;;;;;;28.70;16.50;;;;;;;2.17;100.00;101913.38;4962626;28;20322;-71
2024/02/28 02:37:53;;;;;;;26.77;15.35;;;;;;;2.17;100.00;101923.94;4981269;28;20535;-71
2024/02/28 02:40:19;;;;;;;29.05;15.88;;;;;;;2.18;100.00;101912.38;4981837;28;20527;-71
2024/02/28 02:42:45;;;;;;;28.50;16.17;;;;;;;2.18;100.00;101915.81;5008107;28;20053;-70
2024/02/28 02:45:10;;;;;;;26.40;15.05;;;;;;;2.16;100.00;101917.81;4962551;28;20046;-70
2024/02/28 02:47:36;;;;;;;29.30;15.63;;;;;;;2.15;100.00;101910.06;4965728;28;20030;-71
2024/02/28 02:50:02;;;;;;;28.13;16.08;;;;;;;2.14;100.00;101919.84;4974360;28;20046;-70
2024/02/28 02:52:28;;;;;;;25.70;15.00;;;;;;;2.12;100.00;101923.66;4951783;28;20049;-70
2024/02/28 02:54:54;;;;;;;25.63;14.70;;;;;;;2.11;100.00;101938.72;4996902;28;20041;-71
2024/02/28 02:57:20;;;;;;;25.65;15.45;;;;;;;2.10;100.00;101926.50;4992360;28;20164;-70
2024/02/28 02:59:45;;;;;;;26.40;13.98;;;;;;;2.10;100.00;101933.59;5009612;28;20147;-70
2024/02/28 03:02:11;;;;;;;26.58;15.00;;;;;;;2.11;100.00;101941.34;4978920;28;20782;-70
2024/02/28 03:04:37;;;;;;;28.33;15.95;;;;;;;2.11;100.00;101924.69;4979295;28;20453;-70
2024/02/28 03:07:03;;;;;;;25.63;13.95;;;;;;;2.12;100.00;101931.59;4977770;28;20632;-69
2024/02/28 03:09:28;;;;;;;25.27;13.77;;;;;;;2.13;100.00;101933.22;4978876;28;20023;-70
2024/02/28 03:11:54;;;;;;;28.30;14.40;;;;;;;2.14;100.00;101934.88;4997118;28;20065;-70
2024/02/28 03:14:22;;;;;;;24.85;13.77;;;;;;;2.14;100.00;101932.22;4979169;28;20068;-69
2024/02/28 03:16:48;;;;;;;25.58;14.07;;;;;;;2.13;100.00;101939.34;4978142;28;20041;-70
2024/02/28 03:19:14;;;;;;;;;;;;;;;2.16;100.00;101938.97;4993795;28;20049;-70
2024/02/28 03:21:41;;;;;;;27.23;13.70;;;;;;;2.16;100.00;101932.84;4964088;28;19914;-70
2024/02/28 03:24:07;;;;;;;26.40;14.20;;;;;;;2.17;100.00;101931.88;4963552;28;20105;-72
2024/02/28 03:26:33;;;;;;;28.27;14.65;;;;;;;2.18;100.00;101930.88;4984703;28;20045;-71
2024/02/28 03:28:59;;;;;;;27.13;14.55;;;;;;;2.18;100.00;101928.22;4986264;28;20023;-71
2024/02/28 03:31:25;;;;;;;29.50;14.68;;;;;;;2.17;100.00;101918.66;4981750;28;20698;-71
2024/02/28 03:33:51;;;;;;;27.15;14.80;;;;;;;2.17;100.00;101937.16;4982841;28;20046;-71
2024/02/28 03:36:17;;;;;;;27.30;14.93;;;;;;;2.18;100.00;101936.16;4981476;28;20487;-71
2024/02/28 03:38:42;;;;;;;26.13;13.70;;;;;;;2.15;100.00;101925.94;4981880;28;20053;-70
2024/02/28 03:41:08;;;;;;;27.50;14.00;;;;;;;2.15;100.00;101931.22;4996058;28;20140;-69
2024/02/28 03:43:34;;;;;;;27.95;14.50;;;;;;;2.16;100.00;101927.56;4997645;28;20042;-69
2024/02/28 03:46:00;;;;;;;25.65;13.25;;;;;;;2.17;100.00;101918.66;4982013;28;20095;-69
2024/02/28 03:48:25;;;;;;;26.17;13.90;;;;;;;2.18;100.00;101920.28;5009067;28;20061;-69
2024/02/28 03:50:52;;;;;;;26.27;12.68;;;;;;;2.16;100.00;101917.81;4980073;28;20038;-70
2024/02/28 03:53:18;;;;;;;26.48;14.05;;;;;;;2.17;100.00;101923.94;5005808;28;20085;-70
2024/02/28 03:55:44;;;;;;;25.38;13.20;;;;;;;2.17;100.00;101922.13;4985588;28;20038;-69
2024/02/28 03:58:10;;;;;;;24.27;12.88;;;;;;;2.19;100.00;101919.28;4980527;28;20077;-69
2024/02/28 04:00:36;;;;;;;;;;;;;;;2.17;100.00;101922.13;4992740;28;20060;-71
2024/02/28 04:03:03;;;;;;;23.25;12.32;;;;;;;2.19;100.00;101921.94;4986204;28;20020;-69
2024/02/28 04:05:29;;;;;;;24.60;12.55;;;;;;;2.22;100.00;101915.44;4975018;28;20038;-68
2024/02/28 04:07:55;;;;;;;23.88;12.60;;;;;;;2.22;100.00;101918.91;4981348;28;20088;-70
2024/02/28 04:10:21;;;;;;;24.15;13.27;;;;;;;2.24;100.00;101924.84;4976795;28;20105;-70
2024/02/28 04:12:46;;;;;;;24.63;12.93;;;;;;;2.23;100.00;101911.78;4990898;28;20045;-70
2024/02/28 04:15:13;;;;;;;25.98;14.13;;;;;;;2.22;100.00;101910.16;4982737;28;20097;-69
2024/02/28 04:17:39;;;;;;;26.38;13.30;;;;;;;2.22;100.00;101912.81;4981789;28;20042;-69
2024/02/28 04:20:12;;;;;;;23.55;11.80;;;;;;;2.22;100.00;101905.69;5008949;28;20026;-70
2024/02/28 04:22:38;;;;;;;26.23;13.52;;;;;;;2.23;100.00;101914.44;4976596;28;20124;-69
2024/02/28 04:25:05;;;;;;;28.05;14.68;;;;;;;2.24;100.00;101918.75;4964821;28;20066;-69
2024/02/28 04:27:30;;;;;;;26.63;14.18;;;;;;;2.25;100.00;101918.53;4974255;28;20034;-69
2024/02/28 04:29:56;;;;;;;30.75;12.90;;;;;;;2.26;100.00;101914.91;4964441;28;20026;-69
2024/02/28 04:32:22;;;;;;;26.48;14.07;;;;;;;2.27;100.00;101903.31;4979153;28;20042;-69
2024/02/28 04:34:47;;;;;;;24.73;13.20;;;;;;;2.27;100.00;101919.16;4994413;28;20054;-69
2024/02/28 04:37:13;;;;;;;26.10;14.15;;;;;;;2.25;100.00;101910.63;4966335;28;20042;-69
2024/02/28 04:39:38;;;;;;;26.73;14.65;;;;;;;2.24;100.00;101918.75;4997641;28;20038;-69
2024/02/28 04:42:04;;;;;;;27.02;13.80;;;;;;;2.26;100.00;101914.91;4984584;28;20042;-70
2024/02/28 04:44:30;;;;;;;28.67;14.10;;;;;;;2.26;100.00;101925.47;4963946;28;20039;-70
2024/02/28 04:46:56;;;;;;;26.65;13.55;;;;;;;2.29;100.00;101929.56;4979163;28;20038;-69
2024/02/28 04:49:23;;;;;;;27.58;13.50;;;;;;;2.29;100.00;101932.19;4982795;28;20153;-68
2024/02/28 04:51:48;;;;;;;30.38;14.40;;;;;;;2.28;100.00;101923.44;4976419;28;20492;-69
2024/02/28 04:54:14;;;;;;;26.33;13.30;;;;;;;2.27;100.00;101929.75;4980787;28;20034;-68
2024/02/28 04:56:41;;;;;;;26.05;14.13;;;;;;;2.27;100.00;101935.03;4978986;28;20038;-69
2024/02/28 04:59:10;;;;;;;26.58;14.05;;;;;;;2.30;100.00;101939.13;5008409;28;20053;-69
2024/02/28 05:01:39;;;;;;;25.90;13.65;;;;;;;2.28;100.00;101936.66;4965049;28;20034;-70
2024/02/28 05:04:08;;;;;;;23.92;13.35;;;;;;;2.31;100.00;101935.50;4997630;28;20034;-70
2024/02/28 05:06:34;;;;;;;26.45;15.00;;;;;;;2.29;100.00;101940.94;4979243;28;20030;-69
2024/02/28 05:09:01;;;;;;;23.35;12.82;;;;;;;2.30;100.00;101934.66;4996986;28;20773;-69
2024/02/28 05:11:26;;;;;;;26.83;14.48;;;;;;;2.29;100.00;101933.00;5000630;28;20037;-68
2024/02/28 05:13:52;;;;;;;25.40;14.65;;;;;;;2.29;100.00;101934.84;4980333;28;20119;-70
2024/02/28 05:16:18;;;;;;;26.27;13.90;;;;;;;2.28;100.00;101941.94;4983761;28;20137;-71
2024/02/28 05:18:47;;;;;;;24.42;14.23;;;;;;;2.26;100.00;101938.69;4999879;28;20038;-70
2024/02/28 05:21:13;;;;;;;25.30;14.23;;;;;;;2.27;100.00;101945.59;5015556;28;20555;-70
2024/02/28 05:23:42;;;;;;;24.85;14.40;;;;;;;2.25;100.00;101946.81;4985557;28;20038;-70
2024/02/28 05:26:08;;;;;;;24.58;13.30;;;;;;;2.26;100.00;101938.69;4991480;28;20035;-70
2024/02/28 05:28:34;;;;;;;21.50;12.68;;;;;;;2.26;100.00;101936.03;4983621;28;20037;-68
2024/02/28 05:31:20;;;;;;;23.35;13.13;;;;;;;2.29;100.00;101948.06;4966034;28;20034;-69
2024/02/28 05:33:46;;;;;;;22.00;12.60;;;;;;;2.29;100.00;101956.00;4980259;28;20045;-69
2024/02/28 05:36:12;;;;;;;22.30;13.20;;;;;;;2.26;100.00;101937.88;4969277;28;20121;-68
2024/02/28 05:38:37;;;;;;;22.15;13.32;;;;;;;2.25;100.00;101944.97;4982944;28;20090;-69
2024/02/28 05:41:03;;;;;;;21.23;12.77;;;;;;;2.24;100.00;101951.28;4982354;28;20034;-69
2024/02/28 05:43:29;;;;;;;22.92;11.98;;;;;;;2.22;100.00;101955.91;4984040;28;20030;-69
2024/02/28 05:45:55;;;;;;;20.08;11.85;;;;;;;2.15;100.00;101947.06;4999577;28;20132;-70
2024/02/28 05:48:20;;;;;;;21.17;11.90;;;;;;;2.17;100.00;101955.66;4981004;28;20064;-70
2024/02/28 05:50:46;;;;;;;20.52;11.65;;;;;;;2.17;100.00;101948.56;4979578;28;20157;-70
2024/02/28 05:53:12;;;;;;;17.73;10.77;;;;;;;2.19;100.00;101959.75;4994364;28;20782;-70
2024/02/28 05:55:37;;;;;;;22.25;12.35;;;;;;;2.18;100.00;101967.88;4978945;28;20467;-70
2024/02/28 05:58:03;;;;;;;16.90;10.55;;;;;;;2.17;100.00;101963.59;4979008;28;20061;-70
2024/02/28 06:00:29;;;;;;;17.52;10.80;;;;;;;2.14;100.00;101958.66;4982512;28;20130;-70
2024/02/28 06:02:54;;;;;;;17.95;10.38;;;;;;;2.12;100.00;101965.97;4984661;28;20411;-70
2024/02/28 06:05:20;;;;;;;17.08;10.52;;;;;;;2.14;100.00;101971.88;4961517;28;20031;-71
2024/02/28 06:07:46;;;;;;;17.13;10.30;;;;;;;2.14;100.00;101969.22;4996589;28;20037;-70
2024/02/28 06:10:12;;;;;;;18.38;10.65;;;;;;;2.14;100.00;101969.22;4982905;28;20030;-69
2024/02/28 06:12:37;;;;;;;16.83;10.82;;;;;;;2.15;100.00;101962.94;4979257;28;20509;-71
2024/02/28 06:15:04;;;;;;;17.27;9.95;;;;;;;2.16;100.00;101969.84;4994415;28;20038;-70
2024/02/28 06:17:30;;;;;;;18.52;10.95;;;;;;;2.15;100.00;101969.03;4979166;28;20121;-70
2024/02/28 06:19:56;;;;;;;16.63;10.45;;;;;;;2.18;100.00;101973.16;4980966;28;20035;-70
2024/02/28 06:22:21;;;;;;;19.48;10.55;;;;;;;2.17;100.00;101971.53;4980424;28;20089;-71
2024/02/28 06:24:47;;;;;;;19.23;11.23;;;;;;;2.14;100.00;101971.88;4999366;28;20496;-70
2024/02/28 06:27:13;;;;;;;17.02;10.35;;;;;;;2.13;100.00;101980.81;4981059;28;20145;-71
2024/02/28 06:29:41;;;;;;;19.08;10.73;;;;;;;2.10;100.00;101975.88;4998732;28;20041;-71
2024/02/28 06:32:07;;;;;;;18.45;10.35;;;;;;;2.08;100.00;101981.34;4985354;28;20034;-71
2024/02/28 06:34:33;;;;;;;17.50;10.40;;;;;;;2.07;100.00;101979.72;4980460;28;20039;-70
2024/02/28 06:36:59;;;;;;;16.20;9.57;;;;;;;2.10;100.00;101986.44;4984838;28;20045;-70
2024/02/28 06:39:24;;;;;;;15.55;9.80;;;;;;;2.11;100.00;101988.94;4982664;28;20412;-70
2024/02/28 06:41:51;;;;;;;18.10;10.45;;;;;;;2.12;100.00;101995.03;4999180;28;20070;-70
2024/02/28 06:44:20;;;;;;;17.38;10.73;;;;;;;2.11;100.00;101998.69;4977523;28;20042;-69
2024/02/28 06:46:46;;;;;;;17.05;10.45;;;;;;;2.09;100.00;101995.38;4964741;28;20527;-71
2024/02/28 06:49:12;;;;;;;17.85;10.30;;;;;;;2.11;100.00;102003.97;4981812;28;20031;-71
2024/02/28 06:51:37;;;;;;;17.42;10.98;;;;;;;2.13;100.00;102009.88;4978347;28;20022;-70
2024/02/28 06:54:03;;;;;;;17.70;9.95;;;;;;;2.14;100.00;102003.59;4965441;28;20581;-70
2024/02/28 06:56:30;;;;;;;16.58;9.45;;;;;;;2.17;100.00;102009.34;4980411;28;20038;-70
2024/02/28 06:58:56;;;;;;;17.55;9.85;;;;;;;2.20;100.00;102013.44;4961368;28;20034;-71
2024/02/28 07:01:21;;;;;;;17.48;9.93;;;;;;;2.21;100.00;102014.25;4983157;28;20569;-71
2024/02/28 07:03:47;;;;;;;17.38;10.25;;;;;;;2.23;100.00;102012.22;4979538;28;20042;-70
2024/02/28 07:06:13;;;;;;;16.42;9.48;;;;;;;2.22;100.00;102016.69;4983687;28;20037;-70
2024/02/28 07:08:38;;;;;;;17.20;10.27;;;;;;;2.21;100.00;102014.25;4981493;28;20034;-70
2024/02/28 07:11:04;;;;;;;17.50;9.77;;;;;;;2.22;100.00;102011.41;4980997;28;20033;-70
2024/02/28 07:13:30;;;;;;;18.50;10.38;;;;;;;2.22;100.00;102019.34;4983205;28;20062;-70
2024/02/28 07:15:57;;;;;;;17.60;10.63;;;;;;;2.22;100.00;102014.06;4981748;28;20042;-70
2024/02/28 07:18:25;;;;;;;17.88;10.18;;;;;;;2.24;100.00;102011.25;4999838;28;20038;-69
2024/02/28 07:20:51;;;;;;;17.63;10.48;;;;;;;2.24;100.00;102013.91;4994897;28;20030;-70
2024/02/28 07:23:18;;;;;;;18.55;10.32;;;;;;;2.25;100.00;102026.91;4982782;28;20034;-70
2024/02/28 07:25:43;;;;;;;17.08;10.15;;;;;;;2.26;100.00;102031.19;4981302;28;20129;-70
2024/02/28 07:28:09;;;;;;;17.33;10.55;;;;;;;2.29;100.00;102030.00;4985947;28;20034;-71
2024/02/28 07:30:35;;;;;;;17.35;10.25;;;;;;;2.31;100.00;102031.47;4981366;28;20026;-71
2024/02/28 07:33:01;;;;;;;17.15;9.55;;;;;;;2.35;100.00;102026.63;5016253;28;20034;-70
2024/02/28 07:35:27;;;;;;;16.70;10.13;;;;;;;2.37;100.00;102024.63;4982343;28;20093;-70
2024/02/28 07:37:52;;;;;;;15.05;9.38;;;;;;;2.37;100.00;102025.47;4981874;28;20909;-70
2024/02/28 07:40:18;;;;;;;19.42;10.48;;;;;;;2.40;100.00;102033.00;4967892;28;20046;-70
2024/02/28 07:42:44;;;;;;;19.35;10.75;;;;;;;2.43;100.00;102021.25;4964257;28;20042;-70
2024/02/28 07:45:10;;;;;;;17.67;9.88;;;;;;;2.45;100.00;102024.53;4976849;28;20030;-71
2024/02/28 07:47:35;;;;;;;17.73;10.00;;;;;;;2.48;100.00;102021.50;4981952;28;20037;-70
2024/02/28 07:50:01;;;;;;;14.88;9.95;;;;;;;2.53;100.00;102019.13;4994960;28;20133;-70
2024/02/28 07:52:26;;;;;;;15.70;9.27;;;;;;;2.54;100.00;102027.88;4980822;28;20121;-71
2024/02/28 07:54:52;;;;;;;17.98;11.07;;;;;;;2.55;100.00;102019.75;4981079;28;20487;-70
2024/02/28 07:57:18;;;;;;;18.45;10.20;;;;;;;2.58;100.00;102037.09;4979371;28;20042;-70
2024/02/28 07:59:44;;;;;;;17.75;10.82;;;;;;;2.60;100.00;102035.91;4981827;28;20123;-70
2024/02/28 08:02:11;;;;;;;17.10;10.15;;;;;;;2.65;100.00;102027.44;4997397;28;20058;-70
2024/02/28 08:04:37;;;;;;;19.17;10.82;;;;;;;2.73;100.00;102045.81;4975190;28;20039;-70
2024/02/28 08:07:03;;;;;;;16.63;9.77;;;;;;;2.85;100.00;102054.94;4999404;28;20038;-70
2024/02/28 08:09:29;;;;;;;16.98;10.25;;;;;;;2.93;100.00;102051.34;4983360;28;20086;-70
2024/02/28 08:11:54;;;;;;;17.80;11.10;;;;;;;2.93;100.00;102052.16;4983442;28;20053;-71
2024/02/28 08:14:21;;;;;;;19.25;10.82;;;;;;;2.96;100.00;102048.31;4976246;28;20539;-70
2024/02/28 08:16:46;;;;;;;18.63;11.73;;;;;;;2.97;100.00;102052.59;4983387;28;20038;-70
2024/02/28 08:19:12;;;;;;;19.80;11.30;;;;;;;2.94;100.00;102053.81;4984260;28;20155;-70
2024/02/28 08:21:38;;;;;;;18.25;11.25;;;;;;;2.98;100.00;102041.84;4979665;28;20096;-70
2024/02/28 08:24:04;;;;;;;18.25;10.82;;;;;;;3.02;100.00;102052.88;4980307;28;20038;-71
2024/02/28 08:26:31;;;;;;;17.42;10.40;;;;;;;3.07;100.00;102052.31;4977886;28;20037;-70
2024/02/28 08:28:56;;;;;;;19.73;11.05;;;;;;;3.08;100.00;102053.94;4997019;28;20145;-70
2024/02/28 08:31:22;;;;;;;18.95;11.88;;;;;;;3.13;100.00;102048.91;4980435;28;20109;-70
2024/02/28 08:33:48;;;;;;;21.20;12.60;;;;;;;3.15;100.00;102052.19;4992064;28;20080;-70
2024/02/28 08:36:15;;;;;;;18.77;10.85;;;;;;;3.14;100.00;102050.53;4983096;28;20041;-70
2024/02/28 08:38:41;;;;;;;20.55;11.93;;;;;;;3.14;100.00;102047.91;4980217;28;20056;-71
2024/02/28 08:41:07;;;;;;;21.80;12.73;;;;;;;3.16;100.00;102051.16;4984032;28;20034;-71
2024/02/28 08:43:38;;;;;;;21.63;13.18;;;;;;;3.11;100.00;102059.66;4985016;28;20125;-71
2024/02/28 08:46:03;;;;;;;22.10;12.63;;;;;;;3.22;100.00;102056.53;4982273;28;20129;-71
2024/02/28 08:48:29;;;;;;;25.58;13.50;;;;;;;3.27;100.00;102053.31;4998617;28;20149;-70
2024/02/28 08:50:55;;;;;;;27.13;14.60;;;;;;;3.39;100.00;102061.59;4984465;28;20092;-71
2024/02/28 08:53:20;;;;;;;27.23;15.18;;;;;;;3.56;100.00;102060.31;4984034;28;20046;-70
2024/02/28 08:55:46;;;;;;;27.65;15.27;;;;;;;3.60;100.00;102058.94;4988156;28;20065;-71
2024/02/28 08:58:12;;;;;;;27.38;15.77;;;;;;;3.74;100.00;102057.19;4983518;28;20474;-70
2024/02/28 09:00:38;;;;;;;27.15;15.55;;;;;;;3.79;100.00;102057.44;4972617;28;20275;-70
2024/02/28 09:03:04;;;;;;;28.05;15.68;;;;;;;3.86;100.00;102042.38;4998917;28;20046;-71
2024/02/28 09:05:30;;;;;;;27.50;15.05;;;;;;;3.91;100.00;102053.25;4977983;28;20030;-70
2024/02/28 09:07:57;;;;;;;27.17;15.75;;;;;;;3.98;100.00;102045.34;4982639;28;20038;-70
2024/02/28 09:10:26;;;;;;;28.30;15.77;;;;;;;4.01;100.00;102055.56;4985753;28;20041;-70
2024/02/28 09:12:52;;;;;;;30.63;16.70;;;;;;;4.04;100.00;102055.97;4979761;28;20100;-70
2024/02/28 09:15:18;;;;;;;32.40;17.52;;;;;;;4.09;100.00;102058.88;4986648;28;20030;-70
2024/02/28 09:17:44;;;;;;;30.63;16.83;;;;;;;4.21;100.00;102053.84;5000948;28;20037;-71
2024/02/28 09:20:10;;;;;;;30.92;16.77;;;;;;;4.31;100.00;102062.25;4997906;28;20035;-70
2024/02/28 09:22:37;;;;;;;32.65;17.80;;;;;;;4.50;100.00;102063.38;4982677;28;20030;-71
2024/02/28 09:25:04;;;;;;;;;;;;;;;4.64;100.00;102064.25;4980005;28;20150;-71
2024/02/28 09:27:30;;;;;;;34.35;17.92;;;;;;;4.79;100.00;102053.50;5016059;28;19913;-72
2024/02/28 09:29:55;;;;;;;29.38;16.70;;;;;;;4.86;100.00;102060.47;4979308;28;20039;-70
2024/02/28 09:32:21;;;;;;;30.30;16.60;;;;;;;4.93;100.00;102053.34;4996486;28;20038;-70
2024/02/28 09:34:47;;;;;;;31.15;17.10;;;;;;;4.90;100.00;102055.59;4981382;28;20037;-70
2024/02/28 09:37:14;;;;;;;31.20;16.65;;;;;;;4.99;100.00;102062.34;4982283;28;20034;-70
2024/02/28 09:39:42;;;;;;;31.05;17.08;;;;;;;5.01;100.00;102062.94;4982617;28;20030;-70
2024/02/28 09:42:08;;;;;;;30.50;17.50;;;;;;;4.99;100.00;102059.69;4977786;28;20658;-69
2024/02/28 09:44:34;;;;;;;;;;;;;;;4.91;100.00;102059.88;4986232;28;20030;-69
2024/02/28 09:47:00;;;;;;;28.70;16.23;;;;;;;4.95;100.00;102061.13;5012195;28;19920;-71
2024/02/28 09:49:26;;;;;;;29.23;16.17;;;;;;;4.95;100.00;102063.78;4985662;28;20027;-70
2024/02/28 09:51:52;;;;;;;27.23;15.70;;;;;;;5.00;100.00;102063.97;4981650;28;20092;-71
2024/02/28 09:54:18;;;;;;;26.27;15.75;;;;;;;5.07;100.00;102062.16;5015144;28;20035;-70
2024/02/28 09:56:44;;;;;;;30.13;17.25;;;;;;;5.13;100.00;102060.53;4996180;28;20049;-71
2024/02/28 09:59:11;;;;;;;29.70;15.52;;;;;;;5.24;100.00;102067.09;4998687;28;20027;-71
2024/02/28 10:01:43;;;;;;;27.60;16.30;;;;;;;5.33;100.00;102060.56;4985211;28;20030;-70
2024/02/28 10:04:12;;;;;;;25.40;14.80;;;;;;;5.47;100.00;102055.06;4983812;28;20034;-70
2024/02/28 10:06:39;;;;;;;24.00;14.10;;;;;;;5.64;100.00;102063.47;4981930;28;20045;-70
2024/02/28 10:09:05;;;;;;;26.48;15.13;;;;;;;5.72;100.00;102055.28;4995445;28;20034;-68
2024/02/28 10:11:32;;;;;;;24.48;14.65;;;;;;;5.85;100.00;102049.16;4984118;28;20045;-70
2024/02/28 10:13:59;;;;;;;25.08;14.73;;;;;;;5.88;100.00;102059.34;4962090;28;20065;-70
2024/02/28 10:16:25;;;;;;;23.80;14.93;;;;;;;5.97;100.00;102057.34;4981389;28;20133;-70
2024/02/28 10:18:51;;;;;;;24.45;14.52;;;;;;;6.00;100.00;102062.25;4981849;28;20043;-70
2024/02/28 10:21:17;;;;;;;22.75;13.73;;;;;;;5.97;100.00;102057.34;4981917;28;20030;-70
2024/02/28 10:23:44;;;;;;;;;;;;;;;5.96;100.00;102053.03;4980272;28;20053;-71
2024/02/28 10:26:10;;;;;;;21.80;13.07;;;;;;;6.01;100.00;102058.56;4981700;28;19963;-70
2024/02/28 10:28:40;;;;;;;22.73;14.00;;;;;;;5.98;100.00;102058.97;4966011;28;20042;-70
2024/02/28 10:31:08;;;;;;;22.77;13.73;;;;;;;5.89;100.00;102061.00;4986866;28;20042;-70
2024/02/28 10:33:35;;;;;;;23.15;13.43;;;;;;;5.91;100.00;102063.50;5014250;28;20468;-70
2024/02/28 10:36:03;;;;;;;22.63;13.38;;;;;;;6.03;100.00;102061.84;4979214;28;20129;-70
2024/02/28 10:38:32;;;;;;;21.65;13.38;;;;;;;6.17;100.00;102065.31;4979143;28;20128;-69
2024/02/28 10:41:00;;;;;;;22.63;13.95;;;;;;;6.29;100.00;102061.75;4962506;28;20050;-69
2024/02/28 10:43:29;;;;;;;25.45;13.27;;;;;;;6.46;100.00;102071.97;5013510;28;20038;-70
2024/02/28 10:45:57;;;;;;;23.65;14.23;;;;;;;6.54;100.00;102079.72;4981524;28;20033;-69
2024/02/28 10:48:25;;;;;;;21.42;13.30;;;;;;;6.64;100.00;102082.78;4984359;28;20026;-70
2024/02/28 10:50:51;;;;;;;23.02;13.05;;;;;;;6.80;100.00;102078.81;4979138;28;20033;-71
2024/02/28 10:53:29;;;;;;;24.15;14.52;;;;;;;6.64;100.00;102080.09;4961437;28;20088;-69
2024/02/28 10:56:02;;;;;;;23.98;14.18;;;;;;;6.71;100.00;102080.91;4981599;28;20038;-69
2024/02/28 10:58:36;;;;;;;21.92;13.98;;;;;;;6.76;100.00;102085.56;4998931;28;20057;-71
2024/02/28 11:01:02;;;;;;;22.90;13.63;;;;;;;6.81;100.00;102078.59;4993557;28;20042;-70
2024/02/28 11:03:29;;;;;;;;;;;;;;;6.83;100.00;102079.19;4980270;28;20089;-69
2024/02/28 11:05:56;;;;;;;21.95;13.90;;;;;;;6.81;100.00;102078.59;4982489;28;19945;-70
2024/02/28 11:08:22;;;;;;;;;;;;;;;6.86;100.00;102079.81;4985539;28;20105;-68